sensor_id;sensor_type;location;lat;lon;timestamp;temperature;humidity
22678;DHT22;26259;50.214;18.620;2023-02-15T00:01:42;3.20;99.90
22678;DHT22;26259;50.214;18.620;2023-02-15T00:04:08;3.20;99.90
22678;DHT22;26259;50.214;18.620;2023-02-15T00:06:34;3.20;99.90
22678;DHT22;26259;50.214;18.620;2023-02-15T00:09:00;3.30;99.90
22678;DHT22;26259;50.214;18.620;2023-02-15T00:11:26;3.30;99.90
22678;DHT22;26259;50.214;18.620;2023-02-15T00:14:19;3.30;99.90
22678;DHT22;26259;50.214;18.620;2023-02-15T00:16:46;3.30;99.90
22678;DHT22;26259;50.214;18.620;2023-02-15T00:19:13;3.20;99.90
22678;DHT22;26259;50.214;18.620;2023-02-15T00:21:40;3.30;99.90
22678;DHT22;26259;50.214;18.620;2023-02-15T00:24:09;3.30;99.90
22678;DHT22;26259;50.214;18.620;2023-02-15T00:26:37;3.40;99.90
22678;DHT22;26259;50.214;18.620;2023-02-15T00:29:03;3.40;99.90
22678;DHT22;26259;50.214;18.620;2023-02-15T00:31:32;3.40;99.90
22678;DHT22;26259;50.214;18.620;2023-02-15T00:34:11;3.40;99.90
22678;DHT22;26259;50.214;18.620;2023-02-15T00:36:37;3.50;99.90
22678;DHT22;26259;50.214;18.620;2023-02-15T00:39:03;3.50;99.90
22678;DHT22;26259;50.214;18.620;2023-02-15T00:41:30;3.50;99.90
22678;DHT22;26259;50.214;18.620;2023-02-15T00:43:56;3.50;99.90
22678;DHT22;26259;50.214;18.620;2023-02-15T00:46:21;3.50;99.90
22678;DHT22;26259;50.214;18.620;2023-02-15T00:48:47;3.50;99.90
22678;DHT22;26259;50.214;18.620;2023-02-15T00:51:13;3.50;99.90
22678;DHT22;26259;50.214;18.620;2023-02-15T00:53:39;3.50;99.90
22678;DHT22;26259;50.214;18.620;2023-02-15T00:56:04;3.50;99.90
22678;DHT22;26259;50.214;18.620;2023-02-15T00:58:30;3.60;99.90
22678;DHT22;26259;50.214;18.620;2023-02-15T01:01:04;3.50;99.90
22678;DHT22;26259;50.214;18.620;2023-02-15T01:03:30;3.50;99.90
22678;DHT22;26259;50.214;18.620;2023-02-15T01:05:56;3.50;99.90
22678;DHT22;26259;50.214;18.620;2023-02-15T01:08:22;3.40;99.90
22678;DHT22;26259;50.214;18.620;2023-02-15T01:10:47;3.40;99.90
22678;DHT22;26259;50.214;18.620;2023-02-15T01:13:14;3.50;99.90
22678;DHT22;26259;50.214;18.620;2023-02-15T01:15:41;3.50;99.90
22678;DHT22;26259;50.214;18.620;2023-02-15T01:18:06;3.40;99.90
22678;DHT22;26259;50.214;18.620;2023-02-15T01:20:35;3.40;99.90
22678;DHT22;26259;50.214;18.620;2023-02-15T01:23:02;3.40;99.90
22678;DHT22;26259;50.214;18.620;2023-02-15T01:25:28;3.40;99.90
22678;DHT22;26259;50.214;18.620;2023-02-15T01:27:53;3.40;99.90
22678;DHT22;26259;50.214;18.620;2023-02-15T01:30:19;3.40;99.90
22678;DHT22;26259;50.214;18.620;2023-02-15T01:32:45;3.40;99.90
22678;DHT22;26259;50.214;18.620;2023-02-15T01:35:10;3.40;99.90
22678;DHT22;26259;50.214;18.620;2023-02-15T01:37:36;3.30;99.90
22678;DHT22;26259;50.214;18.620;2023-02-15T01:40:04;3.40;99.90
22678;DHT22;26259;50.214;18.620;2023-02-15T01:42:30;3.30;99.90
22678;DHT22;26259;50.214;18.620;2023-02-15T01:45:03;3.30;99.90
22678;DHT22;26259;50.214;18.620;2023-02-15T01:47:39;3.30;99.90
22678;DHT22;26259;50.214;18.620;2023-02-15T01:52:38;3.30;99.90
22678;DHT22;26259;50.214;18.620;2023-02-15T01:55:06;3.30;99.90
22678;DHT22;26259;50.214;18.620;2023-02-15T01:57:32;3.30;99.90
22678;DHT22;26259;50.214;18.620;2023-02-15T02:00:00;3.30;99.90
22678;DHT22;26259;50.214;18.620;2023-02-15T02:02:27;3.20;99.90
22678;DHT22;26259;50.214;18.620;2023-02-15T02:04:59;3.20;99.90
22678;DHT22;26259;50.214;18.620;2023-02-15T02:07:29;3.10;99.90
22678;DHT22;26259;50.214;18.620;2023-02-15T02:09:57;3.00;99.90
22678;DHT22;26259;50.214;18.620;2023-02-15T02:12:23;2.90;99.90
22678;DHT22;26259;50.214;18.620;2023-02-15T02:14:50;2.90;99.90
22678;DHT22;26259;50.214;18.620;2023-02-15T02:23:27;2.70;99.90
22678;DHT22;26259;50.214;18.620;2023-02-15T02:29:03;2.60;99.90
22678;DHT22;26259;50.214;18.620;2023-02-15T02:44:43;2.10;99.90
22678;DHT22;26259;50.214;18.620;2023-02-15T02:49:39;2.00;99.90
22678;DHT22;26259;50.214;18.620;2023-02-15T02:52:34;1.90;99.90
22678;DHT22;26259;50.214;18.620;2023-02-15T02:54:54;1.90;99.90
22678;DHT22;26259;50.214;18.620;2023-02-15T02:57:22;1.80;99.90
22678;DHT22;26259;50.214;18.620;2023-02-15T02:59:50;1.70;99.90
22678;DHT22;26259;50.214;18.620;2023-02-15T03:02:21;1.60;99.90
22678;DHT22;26259;50.214;18.620;2023-02-15T03:04:53;1.60;99.90
22678;DHT22;26259;50.214;18.620;2023-02-15T03:07:25;1.50;99.90
22678;DHT22;26259;50.214;18.620;2023-02-15T03:09:56;1.40;99.90
22678;DHT22;26259;50.214;18.620;2023-02-15T03:12:27;1.20;99.90
22678;DHT22;26259;50.214;18.620;2023-02-15T03:17:34;1.00;99.90
22678;DHT22;26259;50.214;18.620;2023-02-15T03:20:11;0.90;99.90
22678;DHT22;26259;50.214;18.620;2023-02-15T03:22:48;0.80;99.90
22678;DHT22;26259;50.214;18.620;2023-02-15T03:25:30;0.70;99.90
22678;DHT22;26259;50.214;18.620;2023-02-15T03:28:08;0.60;99.90
22678;DHT22;26259;50.214;18.620;2023-02-15T03:30:36;0.50;99.90
22678;DHT22;26259;50.214;18.620;2023-02-15T03:33:04;0.40;99.90
22678;DHT22;26259;50.214;18.620;2023-02-15T03:35:57;0.30;99.90
22678;DHT22;26259;50.214;18.620;2023-02-15T03:41:27;0.10;99.90
22678;DHT22;26259;50.214;18.620;2023-02-15T03:44:07;0.00;99.90
22678;DHT22;26259;50.214;18.620;2023-02-15T03:46:44;-0.10;99.90
22678;DHT22;26259;50.214;18.620;2023-02-15T03:49:20;-0.10;99.90
22678;DHT22;26259;50.214;18.620;2023-02-15T03:51:48;-0.20;99.90
22678;DHT22;26259;50.214;18.620;2023-02-15T03:54:27;-0.20;99.90
22678;DHT22;26259;50.214;18.620;2023-02-15T03:57:19;-0.20;99.90
22678;DHT22;26259;50.214;18.620;2023-02-15T04:00:12;-0.30;99.90
22678;DHT22;26259;50.214;18.620;2023-02-15T04:05:42;-0.40;99.90
22678;DHT22;26259;50.214;18.620;2023-02-15T04:08:08;-0.40;99.90
22678;DHT22;26259;50.214;18.620;2023-02-15T04:10:35;-0.40;99.90
22678;DHT22;26259;50.214;18.620;2023-02-15T04:13:22;-0.40;99.90
22678;DHT22;26259;50.214;18.620;2023-02-15T04:15:48;-0.30;99.90
22678;DHT22;26259;50.214;18.620;2023-02-15T04:18:39;-0.30;99.90
22678;DHT22;26259;50.214;18.620;2023-02-15T04:21:26;-0.20;99.90
22678;DHT22;26259;50.214;18.620;2023-02-15T04:24:11;-0.20;99.90
22678;DHT22;26259;50.214;18.620;2023-02-15T04:26:55;-0.20;99.90
22678;DHT22;26259;50.214;18.620;2023-02-15T04:29:22;-0.10;99.90
22678;DHT22;26259;50.214;18.620;2023-02-15T04:31:48;0.00;99.90
22678;DHT22;26259;50.214;18.620;2023-02-15T04:34:14;0.10;99.90
22678;DHT22;26259;50.214;18.620;2023-02-15T04:36:40;0.10;99.90
22678;DHT22;26259;50.214;18.620;2023-02-15T04:39:06;0.20;99.90
22678;DHT22;26259;50.214;18.620;2023-02-15T04:41:32;0.20;99.90
22678;DHT22;26259;50.214;18.620;2023-02-15T04:43:58;0.30;99.90
22678;DHT22;26259;50.214;18.620;2023-02-15T04:46:26;0.40;99.90
22678;DHT22;26259;50.214;18.620;2023-02-15T04:48:52;0.40;99.90
22678;DHT22;26259;50.214;18.620;2023-02-15T04:51:17;0.50;99.90
22678;DHT22;26259;50.214;18.620;2023-02-15T04:53:43;0.50;99.90
22678;DHT22;26259;50.214;18.620;2023-02-15T04:56:08;0.50;99.90
22678;DHT22;26259;50.214;18.620;2023-02-15T04:58:34;0.50;99.90
22678;DHT22;26259;50.214;18.620;2023-02-15T05:01:00;0.60;99.90
22678;DHT22;26259;50.214;18.620;2023-02-15T05:03:26;0.60;99.90
22678;DHT22;26259;50.214;18.620;2023-02-15T05:05:52;0.70;99.90
22678;DHT22;26259;50.214;18.620;2023-02-15T05:08:17;0.80;99.90
22678;DHT22;26259;50.214;18.620;2023-02-15T05:10:43;0.80;99.90
22678;DHT22;26259;50.214;18.620;2023-02-15T05:13:09;0.80;99.90
22678;DHT22;26259;50.214;18.620;2023-02-15T05:15:34;0.80;99.90
22678;DHT22;26259;50.214;18.620;2023-02-15T05:18:00;0.80;99.90
22678;DHT22;26259;50.214;18.620;2023-02-15T05:20:27;0.80;99.90
22678;DHT22;26259;50.214;18.620;2023-02-15T05:22:55;0.80;99.90
22678;DHT22;26259;50.214;18.620;2023-02-15T05:25:21;0.90;99.90
22678;DHT22;26259;50.214;18.620;2023-02-15T05:28:07;0.90;99.90
22678;DHT22;26259;50.214;18.620;2023-02-15T05:30:45;1.00;99.90
22678;DHT22;26259;50.214;18.620;2023-02-15T05:33:11;1.10;99.90
22678;DHT22;26259;50.214;18.620;2023-02-15T05:35:37;1.10;99.90
22678;DHT22;26259;50.214;18.620;2023-02-15T05:38:02;1.20;99.90
22678;DHT22;26259;50.214;18.620;2023-02-15T05:40:28;1.20;99.90
22678;DHT22;26259;50.214;18.620;2023-02-15T05:42:53;1.20;99.90
22678;DHT22;26259;50.214;18.620;2023-02-15T05:45:19;1.20;99.90
22678;DHT22;26259;50.214;18.620;2023-02-15T05:47:45;1.20;99.90
22678;DHT22;26259;50.214;18.620;2023-02-15T05:50:10;1.30;99.90
22678;DHT22;26259;50.214;18.620;2023-02-15T05:52:39;1.30;99.90
22678;DHT22;26259;50.214;18.620;2023-02-15T05:55:05;1.30;99.90
22678;DHT22;26259;50.214;18.620;2023-02-15T05:57:31;1.30;99.90
22678;DHT22;26259;50.214;18.620;2023-02-15T05:59:57;1.30;99.90
22678;DHT22;26259;50.214;18.620;2023-02-15T06:02:22;1.40;99.90
22678;DHT22;26259;50.214;18.620;2023-02-15T06:04:48;1.40;99.90
22678;DHT22;26259;50.214;18.620;2023-02-15T06:07:13;1.50;99.90
22678;DHT22;26259;50.214;18.620;2023-02-15T06:09:39;1.60;99.90
22678;DHT22;26259;50.214;18.620;2023-02-15T06:12:05;1.60;99.90
22678;DHT22;26259;50.214;18.620;2023-02-15T06:14:31;1.70;99.90
22678;DHT22;26259;50.214;18.620;2023-02-15T06:16:56;1.70;99.90
22678;DHT22;26259;50.214;18.620;2023-02-15T06:19:22;1.80;99.90
22678;DHT22;26259;50.214;18.620;2023-02-15T06:21:48;1.80;99.90
22678;DHT22;26259;50.214;18.620;2023-02-15T06:24:14;1.90;99.90
22678;DHT22;26259;50.214;18.620;2023-02-15T06:26:40;1.90;99.90
22678;DHT22;26259;50.214;18.620;2023-02-15T06:29:05;1.90;99.90
22678;DHT22;26259;50.214;18.620;2023-02-15T06:31:31;2.00;99.90
22678;DHT22;26259;50.214;18.620;2023-02-15T06:33:57;2.10;99.90
22678;DHT22;26259;50.214;18.620;2023-02-15T06:36:28;2.10;99.90
22678;DHT22;26259;50.214;18.620;2023-02-15T06:38:54;2.20;99.90
22678;DHT22;26259;50.214;18.620;2023-02-15T06:41:20;2.20;99.90
22678;DHT22;26259;50.214;18.620;2023-02-15T06:43:46;2.30;99.90
22678;DHT22;26259;50.214;18.620;2023-02-15T06:46:12;2.40;99.90
22678;DHT22;26259;50.214;18.620;2023-02-15T06:48:37;2.50;99.90
22678;DHT22;26259;50.214;18.620;2023-02-15T06:51:03;2.50;99.90
22678;DHT22;26259;50.214;18.620;2023-02-15T06:53:29;2.60;99.90
22678;DHT22;26259;50.214;18.620;2023-02-15T06:56:05;2.70;99.90
22678;DHT22;26259;50.214;18.620;2023-02-15T06:58:35;2.70;99.90
22678;DHT22;26259;50.214;18.620;2023-02-15T07:01:01;2.80;99.90
22678;DHT22;26259;50.214;18.620;2023-02-15T07:03:27;2.80;99.90
22678;DHT22;26259;50.214;18.620;2023-02-15T07:05:57;2.90;99.90
22678;DHT22;26259;50.214;18.620;2023-02-15T07:08:24;2.90;99.90
22678;DHT22;26259;50.214;18.620;2023-02-15T07:10:51;3.00;99.90
22678;DHT22;26259;50.214;18.620;2023-02-15T07:13:17;3.10;99.90
22678;DHT22;26259;50.214;18.620;2023-02-15T07:15:44;3.20;99.90
22678;DHT22;26259;50.214;18.620;2023-02-15T07:18:10;3.20;99.90
22678;DHT22;26259;50.214;18.620;2023-02-15T07:20:36;3.20;99.90
22678;DHT22;26259;50.214;18.620;2023-02-15T07:23:03;3.30;99.90
22678;DHT22;26259;50.214;18.620;2023-02-15T07:25:29;3.30;99.90
22678;DHT22;26259;50.214;18.620;2023-02-15T07:27:59;3.40;99.90
22678;DHT22;26259;50.214;18.620;2023-02-15T07:30:25;3.50;99.90
22678;DHT22;26259;50.214;18.620;2023-02-15T07:32:58;3.60;99.90
22678;DHT22;26259;50.214;18.620;2023-02-15T07:35:53;3.60;99.90
22678;DHT22;26259;50.214;18.620;2023-02-15T07:38:20;3.60;99.90
22678;DHT22;26259;50.214;18.620;2023-02-15T07:40:46;3.70;99.90
22678;DHT22;26259;50.214;18.620;2023-02-15T07:43:12;3.70;99.90
22678;DHT22;26259;50.214;18.620;2023-02-15T07:45:38;3.80;99.90
22678;DHT22;26259;50.214;18.620;2023-02-15T07:48:04;3.80;99.90
22678;DHT22;26259;50.214;18.620;2023-02-15T07:50:30;3.90;99.90
22678;DHT22;26259;50.214;18.620;2023-02-15T07:52:56;3.90;99.90
22678;DHT22;26259;50.214;18.620;2023-02-15T07:55:22;3.90;99.90
22678;DHT22;26259;50.214;18.620;2023-02-15T07:57:49;3.90;99.90
22678;DHT22;26259;50.214;18.620;2023-02-15T08:00:17;3.90;99.90
22678;DHT22;26259;50.214;18.620;2023-02-15T08:02:51;3.90;99.90
22678;DHT22;26259;50.214;18.620;2023-02-15T08:05:35;4.00;99.90
22678;DHT22;26259;50.214;18.620;2023-02-15T08:08:01;4.00;99.90
22678;DHT22;26259;50.214;18.620;2023-02-15T08:10:26;4.10;99.90
22678;DHT22;26259;50.214;18.620;2023-02-15T08:13:12;4.00;99.90
22678;DHT22;26259;50.214;18.620;2023-02-15T08:15:37;4.10;99.90
22678;DHT22;26259;50.214;18.620;2023-02-15T08:18:03;4.10;99.90
22678;DHT22;26259;50.214;18.620;2023-02-15T08:20:29;4.10;99.90
22678;DHT22;26259;50.214;18.620;2023-02-15T08:22:54;4.10;99.90
22678;DHT22;26259;50.214;18.620;2023-02-15T08:25:20;4.10;99.90
22678;DHT22;26259;50.214;18.620;2023-02-15T08:27:45;4.10;99.90
22678;DHT22;26259;50.214;18.620;2023-02-15T08:30:12;4.00;99.90
22678;DHT22;26259;50.214;18.620;2023-02-15T08:32:39;4.10;99.90
22678;DHT22;26259;50.214;18.620;2023-02-15T08:35:05;4.10;99.90
22678;DHT22;26259;50.214;18.620;2023-02-15T08:37:30;4.20;99.90
22678;DHT22;26259;50.214;18.620;2023-02-15T08:39:56;4.20;99.90
22678;DHT22;26259;50.214;18.620;2023-02-15T08:42:22;4.10;99.90
22678;DHT22;26259;50.214;18.620;2023-02-15T08:44:47;4.20;99.90
22678;DHT22;26259;50.214;18.620;2023-02-15T08:47:15;4.20;99.90
22678;DHT22;26259;50.214;18.620;2023-02-15T08:49:41;4.20;99.90
22678;DHT22;26259;50.214;18.620;2023-02-15T08:52:07;4.30;99.90
22678;DHT22;26259;50.214;18.620;2023-02-15T08:54:32;4.40;99.90
22678;DHT22;26259;50.214;18.620;2023-02-15T08:56:58;4.40;99.90
22678;DHT22;26259;50.214;18.620;2023-02-15T08:59:25;4.60;99.90
22678;DHT22;26259;50.214;18.620;2023-02-15T09:01:53;4.70;99.90
22678;DHT22;26259;50.214;18.620;2023-02-15T09:04:19;4.80;99.90
22678;DHT22;26259;50.214;18.620;2023-02-15T09:06:47;4.80;99.90
22678;DHT22;26259;50.214;18.620;2023-02-15T09:09:13;4.90;99.90
22678;DHT22;26259;50.214;18.620;2023-02-15T09:11:41;5.00;99.90
22678;DHT22;26259;50.214;18.620;2023-02-15T09:14:15;5.10;99.90
22678;DHT22;26259;50.214;18.620;2023-02-15T09:16:43;5.10;99.90
22678;DHT22;26259;50.214;18.620;2023-02-15T09:19:15;5.20;99.90
22678;DHT22;26259;50.214;18.620;2023-02-15T09:21:41;5.30;99.90
22678;DHT22;26259;50.214;18.620;2023-02-15T09:24:12;5.40;99.90
22678;DHT22;26259;50.214;18.620;2023-02-15T09:26:40;5.40;99.90
22678;DHT22;26259;50.214;18.620;2023-02-15T09:29:06;5.60;99.90
22678;DHT22;26259;50.214;18.620;2023-02-15T09:31:43;5.70;99.90
22678;DHT22;26259;50.214;18.620;2023-02-15T09:34:11;5.70;99.90
22678;DHT22;26259;50.214;18.620;2023-02-15T09:36:38;5.80;99.90
22678;DHT22;26259;50.214;18.620;2023-02-15T09:39:22;5.90;99.90
22678;DHT22;26259;50.214;18.620;2023-02-15T09:56:10;6.30;99.90
22678;DHT22;26259;50.214;18.620;2023-02-15T10:16:23;6.70;99.90
22678;DHT22;26259;50.214;18.620;2023-02-15T10:19:01;6.70;99.90
22678;DHT22;26259;50.214;18.620;2023-02-15T10:22:20;6.70;99.90
22678;DHT22;26259;50.214;18.620;2023-02-15T10:27:51;6.90;99.90
22678;DHT22;26259;50.214;18.620;2023-02-15T10:30:27;6.90;99.90
22678;DHT22;26259;50.214;18.620;2023-02-15T10:33:03;6.90;99.90
22678;DHT22;26259;50.214;18.620;2023-02-15T10:35:35;6.90;99.90
22678;DHT22;26259;50.214;18.620;2023-02-15T10:41:01;7.00;99.90
22678;DHT22;26259;50.214;18.620;2023-02-15T10:43:49;7.10;99.90
22678;DHT22;26259;50.214;18.620;2023-02-15T10:51:33;7.00;99.90
22678;DHT22;26259;50.214;18.620;2023-02-15T10:54:18;7.10;99.90
22678;DHT22;26259;50.214;18.620;2023-02-15T10:57:04;7.20;99.90
22678;DHT22;26259;50.214;18.620;2023-02-15T10:59:45;7.20;99.90
22678;DHT22;26259;50.214;18.620;2023-02-15T11:05:29;7.30;99.90
22678;DHT22;26259;50.214;18.620;2023-02-15T11:07:59;7.30;99.90
22678;DHT22;26259;50.214;18.620;2023-02-15T11:10:48;7.40;99.90
22678;DHT22;26259;50.214;18.620;2023-02-15T11:13:19;7.40;99.90
22678;DHT22;26259;50.214;18.620;2023-02-15T11:21:04;7.60;99.90
22678;DHT22;26259;50.214;18.620;2023-02-15T11:23:32;7.70;99.90
22678;DHT22;26259;50.214;18.620;2023-02-15T11:26:03;7.70;99.90
22678;DHT22;26259;50.214;18.620;2023-02-15T11:28:45;7.60;99.90
22678;DHT22;26259;50.214;18.620;2023-02-15T11:31:16;7.70;99.90
22678;DHT22;26259;50.214;18.620;2023-02-15T11:33:49;7.70;99.90
22678;DHT22;26259;50.214;18.620;2023-02-15T11:36:27;7.80;99.90
22678;DHT22;26259;50.214;18.620;2023-02-15T11:39:01;7.80;99.90
22678;DHT22;26259;50.214;18.620;2023-02-15T11:41:33;7.80;99.90
22678;DHT22;26259;50.214;18.620;2023-02-15T11:46:31;7.90;99.90
22678;DHT22;26259;50.214;18.620;2023-02-15T11:48:57;7.90;99.90
22678;DHT22;26259;50.214;18.620;2023-02-15T11:51:24;8.00;99.90
22678;DHT22;26259;50.214;18.620;2023-02-15T11:53:52;8.00;99.90
22678;DHT22;26259;50.214;18.620;2023-02-15T11:56:25;8.10;99.90
22678;DHT22;26259;50.214;18.620;2023-02-15T12:01:33;8.10;99.90
22678;DHT22;26259;50.214;18.620;2023-02-15T12:06:34;8.10;99.90
22678;DHT22;26259;50.214;18.620;2023-02-15T12:09:31;8.20;99.90
22678;DHT22;26259;50.214;18.620;2023-02-15T12:12:24;8.30;99.90
22678;DHT22;26259;50.214;18.620;2023-02-15T12:14:55;8.30;99.90
22678;DHT22;26259;50.214;18.620;2023-02-15T12:17:24;8.40;99.90
22678;DHT22;26259;50.214;18.620;2023-02-15T12:19:55;8.40;99.90
22678;DHT22;26259;50.214;18.620;2023-02-15T12:22:30;8.50;99.90
22678;DHT22;26259;50.214;18.620;2023-02-15T12:25:00;8.60;99.90
22678;DHT22;26259;50.214;18.620;2023-02-15T12:27:34;8.60;99.90
22678;DHT22;26259;50.214;18.620;2023-02-15T12:30:04;8.60;99.90
22678;DHT22;26259;50.214;18.620;2023-02-15T12:35:34;8.60;99.90
22678;DHT22;26259;50.214;18.620;2023-02-15T12:40:36;8.60;99.90
22678;DHT22;26259;50.214;18.620;2023-02-15T12:43:03;8.70;99.90
22678;DHT22;26259;50.214;18.620;2023-02-15T12:45:35;8.70;99.90
22678;DHT22;26259;50.214;18.620;2023-02-15T12:50:50;8.80;99.90
22678;DHT22;26259;50.214;18.620;2023-02-15T12:53:19;8.80;99.90
22678;DHT22;26259;50.214;18.620;2023-02-15T12:55:52;8.80;99.90
22678;DHT22;26259;50.214;18.620;2023-02-15T12:58:21;8.80;99.90
22678;DHT22;26259;50.214;18.620;2023-02-15T13:00:54;8.80;99.90
22678;DHT22;26259;50.214;18.620;2023-02-15T13:03:27;8.80;99.90
22678;DHT22;26259;50.214;18.620;2023-02-15T13:05:55;8.80;99.90
22678;DHT22;26259;50.214;18.620;2023-02-15T13:08:28;8.80;99.90
22678;DHT22;26259;50.214;18.620;2023-02-15T13:13:31;8.80;99.90
22678;DHT22;26259;50.214;18.620;2023-02-15T13:16:12;8.70;99.90
22678;DHT22;26259;50.214;18.620;2023-02-15T13:18:43;8.70;99.90
22678;DHT22;26259;50.214;18.620;2023-02-15T13:21:13;8.70;99.90
22678;DHT22;26259;50.214;18.620;2023-02-15T13:23:47;8.70;99.90
22678;DHT22;26259;50.214;18.620;2023-02-15T13:26:19;8.70;99.90
22678;DHT22;26259;50.214;18.620;2023-02-15T13:28:48;8.80;99.90
22678;DHT22;26259;50.214;18.620;2023-02-15T13:31:18;8.70;99.90
22678;DHT22;26259;50.214;18.620;2023-02-15T13:33:56;8.80;99.90
22678;DHT22;26259;50.214;18.620;2023-02-15T13:53:36;8.70;99.90
22678;DHT22;26259;50.214;18.620;2023-02-15T14:06:34;8.50;99.90
22678;DHT22;26259;50.214;18.620;2023-02-15T14:09:11;8.60;99.90
22678;DHT22;26259;50.214;18.620;2023-02-15T14:17:07;8.50;99.90
22678;DHT22;26259;50.214;18.620;2023-02-15T14:19:45;8.40;99.90
22678;DHT22;26259;50.214;18.620;2023-02-15T14:22:36;8.40;99.90
22678;DHT22;26259;50.214;18.620;2023-02-15T14:30:58;8.30;99.90
22678;DHT22;26259;50.214;18.620;2023-02-15T14:36:02;8.20;99.90
22678;DHT22;26259;50.214;18.620;2023-02-15T14:41:47;8.00;99.90
22678;DHT22;26259;50.214;18.620;2023-02-15T14:49:39;7.80;99.90
22678;DHT22;26259;50.214;18.620;2023-02-15T14:52:06;7.80;99.90
22678;DHT22;26259;50.214;18.620;2023-02-15T15:02:03;7.50;99.90
22678;DHT22;26259;50.214;18.620;2023-02-15T15:08:06;7.30;99.90
22678;DHT22;26259;50.214;18.620;2023-02-15T15:15:44;7.10;99.90
22678;DHT22;26259;50.214;18.620;2023-02-15T15:18:42;7.00;99.90
22678;DHT22;26259;50.214;18.620;2023-02-15T15:21:08;7.00;99.90
22678;DHT22;26259;50.214;18.620;2023-02-15T15:23:44;6.80;99.90
22678;DHT22;26259;50.214;18.620;2023-02-15T15:37:17;6.30;99.90
22678;DHT22;26259;50.214;18.620;2023-02-15T15:47:44;5.50;99.90
22678;DHT22;26259;50.214;18.620;2023-02-15T15:50:21;5.40;99.90
22678;DHT22;26259;50.214;18.620;2023-02-15T15:52:50;5.30;99.90
22678;DHT22;26259;50.214;18.620;2023-02-15T15:55:22;5.10;99.90
22678;DHT22;26259;50.214;18.620;2023-02-15T15:57:57;5.00;99.90
22678;DHT22;26259;50.214;18.620;2023-02-15T16:00:38;4.90;99.90
22678;DHT22;26259;50.214;18.620;2023-02-15T16:03:23;4.80;99.90
22678;DHT22;26259;50.214;18.620;2023-02-15T16:05:49;4.70;99.90
22678;DHT22;26259;50.214;18.620;2023-02-15T16:08:36;4.60;99.90
22678;DHT22;26259;50.214;18.620;2023-02-15T16:11:14;4.40;99.90
22678;DHT22;26259;50.214;18.620;2023-02-15T16:13:42;4.40;99.90
22678;DHT22;26259;50.214;18.620;2023-02-15T16:16:11;4.30;99.90
22678;DHT22;26259;50.214;18.620;2023-02-15T16:18:38;4.20;99.90
22678;DHT22;26259;50.214;18.620;2023-02-15T16:21:21;4.10;99.90
22678;DHT22;26259;50.214;18.620;2023-02-15T16:26:36;3.90;99.90
22678;DHT22;26259;50.214;18.620;2023-02-15T16:29:14;3.70;99.90
22678;DHT22;26259;50.214;18.620;2023-02-15T16:31:41;3.60;99.90
22678;DHT22;26259;50.214;18.620;2023-02-15T16:34:14;3.60;99.90
22678;DHT22;26259;50.214;18.620;2023-02-15T16:36:42;3.50;99.90
22678;DHT22;26259;50.214;18.620;2023-02-15T16:39:12;3.40;99.90
22678;DHT22;26259;50.214;18.620;2023-02-15T16:41:41;3.40;99.90
22678;DHT22;26259;50.214;18.620;2023-02-15T16:44:20;3.30;99.90
22678;DHT22;26259;50.214;18.620;2023-02-15T16:46:51;3.20;99.90
22678;DHT22;26259;50.214;18.620;2023-02-15T16:49:25;3.10;99.90
22678;DHT22;26259;50.214;18.620;2023-02-15T16:51:58;3.00;99.90
22678;DHT22;26259;50.214;18.620;2023-02-15T16:54:25;3.00;99.90
22678;DHT22;26259;50.214;18.620;2023-02-15T16:56:52;2.90;99.90
22678;DHT22;26259;50.214;18.620;2023-02-15T16:59:41;2.80;99.90
22678;DHT22;26259;50.214;18.620;2023-02-15T17:02:19;2.80;99.90
22678;DHT22;26259;50.214;18.620;2023-02-15T17:05:07;2.70;99.90
22678;DHT22;26259;50.214;18.620;2023-02-15T17:07:41;2.60;99.90
22678;DHT22;26259;50.214;18.620;2023-02-15T17:10:37;2.60;99.90
22678;DHT22;26259;50.214;18.620;2023-02-15T17:13:27;2.50;99.90
22678;DHT22;26259;50.214;18.620;2023-02-15T17:18:26;2.40;99.90
22678;DHT22;26259;50.214;18.620;2023-02-15T17:20:54;2.30;99.90
22678;DHT22;26259;50.214;18.620;2023-02-15T17:25:46;2.20;99.90
22678;DHT22;26259;50.214;18.620;2023-02-15T17:28:18;2.10;99.90
22678;DHT22;26259;50.214;18.620;2023-02-15T17:30:44;2.00;99.90
22678;DHT22;26259;50.214;18.620;2023-02-15T17:33:22;2.00;99.90
22678;DHT22;26259;50.214;18.620;2023-02-15T17:38:31;2.00;99.90
22678;DHT22;26259;50.214;18.620;2023-02-15T17:40:57;2.00;99.90
22678;DHT22;26259;50.214;18.620;2023-02-15T17:43:26;2.00;99.90
22678;DHT22;26259;50.214;18.620;2023-02-15T17:45:52;1.90;99.90
22678;DHT22;26259;50.214;18.620;2023-02-15T17:48:36;1.90;99.90
22678;DHT22;26259;50.214;18.620;2023-02-15T17:51:05;1.80;99.90
22678;DHT22;26259;50.214;18.620;2023-02-15T17:53:32;1.80;99.90
22678;DHT22;26259;50.214;18.620;2023-02-15T17:55:57;1.80;99.90
22678;DHT22;26259;50.214;18.620;2023-02-15T17:58:23;1.70;99.90
22678;DHT22;26259;50.214;18.620;2023-02-15T18:00:51;1.70;99.90
22678;DHT22;26259;50.214;18.620;2023-02-15T18:03:40;1.60;99.90
22678;DHT22;26259;50.214;18.620;2023-02-15T18:06:25;1.60;99.90
22678;DHT22;26259;50.214;18.620;2023-02-15T18:09:14;1.50;99.90
22678;DHT22;26259;50.214;18.620;2023-02-15T18:11:59;1.40;99.90
22678;DHT22;26259;50.214;18.620;2023-02-15T18:14:25;1.30;99.90
22678;DHT22;26259;50.214;18.620;2023-02-15T18:16:52;1.30;99.90
22678;DHT22;26259;50.214;18.620;2023-02-15T18:19:22;1.20;99.90
22678;DHT22;26259;50.214;18.620;2023-02-15T18:21:48;1.10;99.90
22678;DHT22;26259;50.214;18.620;2023-02-15T18:24:21;1.00;99.90
22678;DHT22;26259;50.214;18.620;2023-02-15T18:26:49;0.90;99.90
22678;DHT22;26259;50.214;18.620;2023-02-15T18:29:15;0.90;99.90
22678;DHT22;26259;50.214;18.620;2023-02-15T18:31:42;0.90;99.90
22678;DHT22;26259;50.214;18.620;2023-02-15T18:36:47;0.80;99.90
22678;DHT22;26259;50.214;18.620;2023-02-15T18:41:54;0.70;99.90
22678;DHT22;26259;50.214;18.620;2023-02-15T18:44:20;0.60;99.90
22678;DHT22;26259;50.214;18.620;2023-02-15T18:46:45;0.50;99.90
22678;DHT22;26259;50.214;18.620;2023-02-15T18:49:11;0.50;99.90
22678;DHT22;26259;50.214;18.620;2023-02-15T18:51:37;0.40;99.90
22678;DHT22;26259;50.214;18.620;2023-02-15T18:54:05;0.40;99.90
22678;DHT22;26259;50.214;18.620;2023-02-15T18:56:35;0.40;99.90
22678;DHT22;26259;50.214;18.620;2023-02-15T18:59:01;0.30;99.90
22678;DHT22;26259;50.214;18.620;2023-02-15T19:01:27;0.30;99.90
22678;DHT22;26259;50.214;18.620;2023-02-15T19:03:52;0.30;99.90
22678;DHT22;26259;50.214;18.620;2023-02-15T19:06:20;0.30;99.90
22678;DHT22;26259;50.214;18.620;2023-02-15T19:08:48;0.30;99.90
22678;DHT22;26259;50.214;18.620;2023-02-15T19:11:18;0.30;99.90
22678;DHT22;26259;50.214;18.620;2023-02-15T19:13:45;0.30;99.90
22678;DHT22;26259;50.214;18.620;2023-02-15T19:16:34;0.30;99.90
22678;DHT22;26259;50.214;18.620;2023-02-15T19:19:00;0.40;99.90